sensor_id;sensor_type;location;lat;lon;timestamp;pressure;altitude;pressure_sealevel;temperature;humidity
20003;BME280;10162;41.600;23.806;2023-02-28T00:01:49;95536.63;;;7.90;100.00
20003;BME280;10162;41.600;23.806;2023-02-28T00:04:18;95557.88;;;7.55;100.00
20003;BME280;10162;41.600;23.806;2023-02-28T00:22:18;95555.78;;;7.01;100.00
20003;BME280;10162;41.600;23.806;2023-02-28T00:24:46;95549.44;;;6.88;100.00
20003;BME280;10162;41.600;23.806;2023-02-28T00:27:13;95570.91;;;7.14;100.00
20003;BME280;10162;41.600;23.806;2023-02-28T00:33:15;95559.69;;;6.81;100.00
20003;BME280;10162;41.600;23.806;2023-02-28T00:35:41;95568.44;;;6.96;100.00
20003;BME280;10162;41.600;23.806;2023-02-28T00:38:08;95565.84;;;6.80;100.00
20003;BME280;10162;41.600;23.806;2023-02-28T00:40:34;95562.56;;;6.62;100.00
20003;BME280;10162;41.600;23.806;2023-02-28T00:43:00;95550.38;;;6.62;100.00
20003;BME280;10162;41.600;23.806;2023-02-28T00:45:26;95568.25;;;6.74;100.00
20003;BME280;10162;41.600;23.806;2023-02-28T00:47:52;95557.19;;;6.47;100.00
20003;BME280;10162;41.600;23.806;2023-02-28T00:50:19;95538.06;;;6.73;100.00
20003;BME280;10162;41.600;23.806;2023-02-28T00:52:47;95542.28;;;6.74;100.00
20003;BME280;10162;41.600;23.806;2023-02-28T00:55:27;95538.53;;;6.60;100.00
20003;BME280;10162;41.600;23.806;2023-02-28T00:57:53;95535.78;;;6.70;100.00
20003;BME280;10162;41.600;23.806;2023-02-28T01:00:25;95521.00;;;6.62;100.00
20003;BME280;10162;41.600;23.806;2023-02-28T01:03:25;95570.72;;;6.75;100.00
20003;BME280;10162;41.600;23.806;2023-02-28T01:05:51;95552.66;;;6.57;100.00
20003;BME280;10162;41.600;23.806;2023-02-28T01:08:18;95583.66;;;6.59;100.00
20003;BME280;10162;41.600;23.806;2023-02-28T01:10:46;95529.28;;;5.99;100.00
20003;BME280;10162;41.600;23.806;2023-02-28T01:13:20;95549.66;;;6.20;100.00
20003;BME280;10162;41.600;23.806;2023-02-28T01:15:52;95543.47;;;6.21;100.00
20003;BME280;10162;41.600;23.806;2023-02-28T01:18:20;95567.88;;;6.36;100.00
20003;BME280;10162;41.600;23.806;2023-02-28T01:21:15;95524.81;;;6.17;100.00
20003;BME280;10162;41.600;23.806;2023-02-28T01:23:43;95552.97;;;6.54;100.00
20003;BME280;10162;41.600;23.806;2023-02-28T01:26:20;95579.94;;;6.61;100.00
20003;BME280;10162;41.600;23.806;2023-02-28T01:28:49;95549.47;;;6.13;100.00
20003;BME280;10162;41.600;23.806;2023-02-28T01:31:16;95544.13;;;6.23;100.00
20003;BME280;10162;41.600;23.806;2023-02-28T01:36:40;95568.53;;;6.04;100.00
20003;BME280;10162;41.600;23.806;2023-02-28T01:39:06;95575.22;;;6.07;100.00
20003;BME280;10162;41.600;23.806;2023-02-28T01:41:34;95593.16;;;6.34;100.00
20003;BME280;10162;41.600;23.806;2023-02-28T01:46:36;95591.97;;;5.87;100.00
20003;BME280;10162;41.600;23.806;2023-02-28T01:49:12;95585.59;;;6.07;100.00
20003;BME280;10162;41.600;23.806;2023-02-28T01:51:48;95591.91;;;6.04;100.00
20003;BME280;10162;41.600;23.806;2023-02-28T01:54:29;95587.03;;;5.75;100.00
20003;BME280;10162;41.600;23.806;2023-02-28T01:56:57;95606.84;;;6.10;100.00
20003;BME280;10162;41.600;23.806;2023-02-28T01:59:43;95589.44;;;5.95;100.00
20003;BME280;10162;41.600;23.806;2023-02-28T02:02:19;95589.31;;;5.78;100.00
20003;BME280;10162;41.600;23.806;2023-02-28T02:05:07;95606.38;;;6.07;100.00
20003;BME280;10162;41.600;23.806;2023-02-28T02:07:39;95609.56;;;6.01;100.00
20003;BME280;10162;41.600;23.806;2023-02-28T02:10:12;95621.31;;;6.13;100.00
20003;BME280;10162;41.600;23.806;2023-02-28T02:24:02;95633.75;;;6.35;100.00
20003;BME280;10162;41.600;23.806;2023-02-28T02:32:44;95643.09;;;6.62;100.00
20003;BME280;10162;41.600;23.806;2023-02-28T02:35:24;95646.34;;;6.64;100.00
20003;BME280;10162;41.600;23.806;2023-02-28T02:38:09;95636.31;;;6.69;100.00
20003;BME280;10162;41.600;23.806;2023-02-28T02:40:47;95615.66;;;6.59;100.00
20003;BME280;10162;41.600;23.806;2023-02-28T02:43:22;95628.06;;;6.82;100.00
20003;BME280;10162;41.600;23.806;2023-02-28T02:45:57;95610.69;;;6.82;100.00
20003;BME280;10162;41.600;23.806;2023-02-28T02:48:30;95621.09;;;6.98;100.00
20003;BME280;10162;41.600;23.806;2023-02-28T02:51:04;95629.72;;;7.07;100.00
20003;BME280;10162;41.600;23.806;2023-02-28T03:28:08;95668.25;;;7.93;100.00
20003;BME280;10162;41.600;23.806;2023-02-28T03:30:57;95662.41;;;7.82;100.00
20003;BME280;10162;41.600;23.806;2023-02-28T03:33:42;95649.72;;;7.79;100.00
20003;BME280;10162;41.600;23.806;2023-02-28T03:36:30;95654.94;;;7.79;100.00
20003;BME280;10162;41.600;23.806;2023-02-28T03:39:12;95663.84;;;7.93;100.00
20003;BME280;10162;41.600;23.806;2023-02-28T03:41:57;95658.81;;;7.83;100.00
20003;BME280;10162;41.600;23.806;2023-02-28T03:52:06;95692.50;;;7.77;100.00
20003;BME280;10162;41.600;23.806;2023-02-28T03:54:37;95646.97;;;7.65;100.00
20003;BME280;10162;41.600;23.806;2023-02-28T03:57:26;95679.66;;;7.83;100.00
20003;BME280;10162;41.600;23.806;2023-02-28T04:15:01;95671.78;;;8.16;100.00
20003;BME280;10162;41.600;23.806;2023-02-28T04:17:27;95687.06;;;8.27;100.00
20003;BME280;10162;41.600;23.806;2023-02-28T04:19:53;95688.53;;;8.29;100.00
20003;BME280;10162;41.600;23.806;2023-02-28T04:22:29;95681.53;;;8.22;100.00
20003;BME280;10162;41.600;23.806;2023-02-28T04:36:51;95698.31;;;8.11;100.00
20003;BME280;10162;41.600;23.806;2023-02-28T04:39:21;95682.88;;;8.02;100.00
20003;BME280;10162;41.600;23.806;2023-02-28T04:41:47;95706.09;;;8.27;100.00
20003;BME280;10162;41.600;23.806;2023-02-28T04:44:15;95699.44;;;8.17;100.00
20003;BME280;10162;41.600;23.806;2023-02-28T04:46:41;95681.56;;;7.98;100.00
20003;BME280;10162;41.600;23.806;2023-02-28T04:49:12;95701.59;;;8.13;100.00
20003;BME280;10162;41.600;23.806;2023-02-28T04:51:39;95676.41;;;7.73;100.00
20003;BME280;10162;41.600;23.806;2023-02-28T04:54:19;95705.47;;;8.09;100.00
20003;BME280;10162;41.600;23.806;2023-02-28T04:56:45;95687.75;;;8.13;100.00
20003;BME280;10162;41.600;23.806;2023-02-28T04:59:17;95681.91;;;8.03;100.00
20003;BME280;10162;41.600;23.806;2023-02-28T05:01:49;95687.78;;;7.88;100.00
20003;BME280;10162;41.600;23.806;2023-02-28T05:04:16;95680.78;;;7.97;100.00
20003;BME280;10162;41.600;23.806;2023-02-28T05:06:45;95675.88;;;7.86;100.00
20003;BME280;10162;41.600;23.806;2023-02-28T05:25:38;95702.25;;;7.51;100.00
20003;BME280;10162;41.600;23.806;2023-02-28T05:29:26;95716.38;;;7.32;100.00
20003;BME280;10162;41.600;23.806;2023-02-28T05:33:04;95677.34;;;7.16;100.00
20003;BME280;10162;41.600;23.806;2023-02-28T05:35:32;95708.25;;;7.27;100.00
20003;BME280;10162;41.600;23.806;2023-02-28T05:37:58;95720.97;;;7.54;100.00
20003;BME280;10162;41.600;23.806;2023-02-28T05:48:29;95725.84;;;7.81;100.00
20003;BME280;10162;41.600;23.806;2023-02-28T05:51:03;95733.63;;;7.98;100.00
20003;BME280;10162;41.600;23.806;2023-02-28T05:53:29;95745.19;;;8.11;100.00
20003;BME280;10162;41.600;23.806;2023-02-28T05:55:56;95738.53;;;8.17;100.00
20003;BME280;10162;41.600;23.806;2023-02-28T05:58:23;95737.34;;;8.52;100.00
20003;BME280;10162;41.600;23.806;2023-02-28T06:00:51;95741.94;;;8.09;100.00
20003;BME280;10162;41.600;23.806;2023-02-28T06:03:18;95744.22;;;8.04;100.00
20003;BME280;10162;41.600;23.806;2023-02-28T06:05:44;95731.72;;;7.92;100.00
20003;BME280;10162;41.600;23.806;2023-02-28T06:08:10;95743.56;;;7.86;100.00
20003;BME280;10162;41.600;23.806;2023-02-28T06:10:36;95764.75;;;8.07;100.00
20003;BME280;10162;41.600;23.806;2023-02-28T06:13:04;95762.13;;;8.15;100.00
20003;BME280;10162;41.600;23.806;2023-02-28T06:15:31;95757.38;;;8.27;100.00
20003;BME280;10162;41.600;23.806;2023-02-28T06:17:57;95740.31;;;8.16;100.00
20003;BME280;10162;41.600;23.806;2023-02-28T06:20:31;95750.06;;;7.98;100.00
20003;BME280;10162;41.600;23.806;2023-02-28T06:27:39;95760.50;;;8.39;100.00
20003;BME280;10162;41.600;23.806;2023-02-28T06:34:32;95759.53;;;8.95;100.00
20003;BME280;10162;41.600;23.806;2023-02-28T07:12:16;95762.84;;;10.71;100.00
20003;BME280;10162;41.600;23.806;2023-02-28T07:19:38;95741.84;;;10.64;100.00
20003;BME280;10162;41.600;23.806;2023-02-28T07:22:06;95742.63;;;10.50;100.00
20003;BME280;10162;41.600;23.806;2023-02-28T07:27:33;95761.75;;;10.95;100.00
20003;BME280;10162;41.600;23.806;2023-02-28T07:29:59;95760.13;;;10.94;100.00
20003;BME280;10162;41.600;23.806;2023-02-28T07:32:46;95765.66;;;10.99;100.00
20003;BME280;10162;41.600;23.806;2023-02-28T07:35:13;95762.41;;;10.97;100.00
20003;BME280;10162;41.600;23.806;2023-02-28T07:37:41;95745.44;;;11.07;100.00
20003;BME280;10162;41.600;23.806;2023-02-28T07:40:10;95726.88;;;10.73;100.00
20003;BME280;10162;41.600;23.806;2023-02-28T07:46:52;95794.72;;;11.04;100.00
20003;BME280;10162;41.600;23.806;2023-02-28T07:49:18;95762.75;;;10.79;100.00
20003;BME280;10162;41.600;23.806;2023-02-28T07:51:47;95779.63;;;10.76;100.00
20003;BME280;10162;41.600;23.806;2023-02-28T07:54:34;95771.31;;;11.17;100.00
20003;BME280;10162;41.600;23.806;2023-02-28T07:57:01;95746.16;;;11.16;100.00
20003;BME280;10162;41.600;23.806;2023-02-28T08:02:56;95760.94;;;11.59;100.00
20003;BME280;10162;41.600;23.806;2023-02-28T08:05:24;95763.19;;;11.98;100.00
20003;BME280;10162;41.600;23.806;2023-02-28T08:07:50;95760.75;;;12.18;100.00
20003;BME280;10162;41.600;23.806;2023-02-28T08:10:18;95751.63;;;12.14;100.00
20003;BME280;10162;41.600;23.806;2023-02-28T08:12:59;95749.94;;;12.28;100.00
20003;BME280;10162;41.600;23.806;2023-02-28T08:15:25;95761.50;;;12.68;100.00
20003;BME280;10162;41.600;23.806;2023-02-28T08:17:51;95749.75;;;12.57;100.00
20003;BME280;10162;41.600;23.806;2023-02-28T08:20:19;95750.47;;;12.45;100.00
20003;BME280;10162;41.600;23.806;2023-02-28T08:26:44;95774.56;;;12.89;100.00
20003;BME280;10162;41.600;23.806;2023-02-28T08:29:14;95782.09;;;12.71;100.00
20003;BME280;10162;41.600;23.806;2023-02-28T08:35:35;95756.09;;;13.10;97.26
20003;BME280;10162;41.600;23.806;2023-02-28T08:38:08;95734.81;;;13.33;94.43
20003;BME280;10162;41.600;23.806;2023-02-28T08:40:36;95739.78;;;13.69;93.17
20003;BME280;10162;41.600;23.806;2023-02-28T08:47:01;95741.16;;;13.58;92.14
20003;BME280;10162;41.600;23.806;2023-02-28T08:49:34;95747.91;;;13.94;88.87
20003;BME280;10162;41.600;23.806;2023-02-28T08:56:00;95767.00;;;14.75;88.06
20003;BME280;10162;41.600;23.806;2023-02-28T08:58:29;95740.88;;;14.54;87.38
20003;BME280;10162;41.600;23.806;2023-02-28T09:00:56;95735.34;;;14.95;83.51
20003;BME280;10162;41.600;23.806;2023-02-28T09:07:22;95710.91;;;14.55;83.95
20003;BME280;10162;41.600;23.806;2023-02-28T09:09:50;95737.41;;;14.66;85.71
20003;BME280;10162;41.600;23.806;2023-02-28T09:16:21;95717.34;;;14.85;81.96
20003;BME280;10162;41.600;23.806;2023-02-28T09:18:50;95675.91;;;14.08;84.12
20003;BME280;10162;41.600;23.806;2023-02-28T09:25:16;95694.94;;;14.50;84.66
20003;BME280;10162;41.600;23.806;2023-02-28T09:27:42;95708.53;;;14.46;85.37
20003;BME280;10162;41.600;23.806;2023-02-28T09:30:08;95706.66;;;14.67;83.34
20003;BME280;10162;41.600;23.806;2023-02-28T09:36:34;95724.25;;;14.86;81.05
20003;BME280;10162;41.600;23.806;2023-02-28T09:39:04;95701.81;;;14.57;82.09
20003;BME280;10162;41.600;23.806;2023-02-28T09:47:54;95699.78;;;14.26;85.05
20003;BME280;10162;41.600;23.806;2023-02-28T09:57:01;95695.34;;;14.53;84.57
20003;BME280;10162;41.600;23.806;2023-02-28T10:06:20;95671.13;;;15.02;79.66
20003;BME280;10162;41.600;23.806;2023-02-28T10:09:04;95677.09;;;15.22;80.84
20003;BME280;10162;41.600;23.806;2023-02-28T10:15:31;95680.34;;;15.62;78.15
20003;BME280;10162;41.600;23.806;2023-02-28T10:18:01;95669.47;;;15.84;74.93
20003;BME280;10162;41.600;23.806;2023-02-28T10:20:32;95666.81;;;15.59;77.51
20003;BME280;10162;41.600;23.806;2023-02-28T10:26:58;95661.53;;;16.15;74.10
20003;BME280;10162;41.600;23.806;2023-02-28T10:29:27;95655.44;;;15.90;75.19
20003;BME280;10162;41.600;23.806;2023-02-28T10:35:48;95643.00;;;16.22;73.13
20003;BME280;10162;41.600;23.806;2023-02-28T10:38:27;95642.69;;;16.11;72.94
20003;BME280;10162;41.600;23.806;2023-02-28T10:43:34;95583.63;;;16.31;71.14
20003;BME280;10162;41.600;23.806;2023-02-28T10:46:20;95632.53;;;16.33;72.41
20003;BME280;10162;41.600;23.806;2023-02-28T10:49:05;95628.41;;;16.19;74.27
20003;BME280;10162;41.600;23.806;2023-02-28T10:55:26;95604.81;;;16.24;75.22
20003;BME280;10162;41.600;23.806;2023-02-28T10:57:54;95597.84;;;16.30;73.72
20003;BME280;10162;41.600;23.806;2023-02-28T11:00:23;95620.31;;;16.39;73.06
20003;BME280;10162;41.600;23.806;2023-02-28T11:06:46;95587.38;;;15.80;74.57
20003;BME280;10162;41.600;23.806;2023-02-28T11:09:38;95617.50;;;15.91;74.71
20003;BME280;10162;41.600;23.806;2023-02-28T11:16:11;95569.78;;;15.74;75.37
20003;BME280;10162;41.600;23.806;2023-02-28T11:18:53;95546.38;;;15.59;76.15
20003;BME280;10162;41.600;23.806;2023-02-28T11:25:25;95576.47;;;15.77;77.20
20003;BME280;10162;41.600;23.806;2023-02-28T11:28:04;95588.41;;;15.48;78.61
20003;BME280;10162;41.600;23.806;2023-02-28T11:30:40;95568.59;;;15.39;79.39
20003;BME280;10162;41.600;23.806;2023-02-28T11:37:08;95571.16;;;15.20;79.15
20003;BME280;10162;41.600;23.806;2023-02-28T11:39:39;95556.13;;;15.21;79.62
20003;BME280;10162;41.600;23.806;2023-02-28T11:46:18;95574.50;;;15.03;81.70
20003;BME280;10162;41.600;23.806;2023-02-28T11:55:08;95568.13;;;14.85;84.24
20003;BME280;10162;41.600;23.806;2023-02-28T11:58:01;95574.44;;;14.71;83.03
20003;BME280;10162;41.600;23.806;2023-02-28T12:09:20;95570.91;;;14.46;86.83
20003;BME280;10162;41.600;23.806;2023-02-28T12:15:47;95577.00;;;14.14;97.77
20003;BME280;10162;41.600;23.806;2023-02-28T12:27:28;95581.50;;;13.34;100.00
20003;BME280;10162;41.600;23.806;2023-02-28T12:30:40;95545.63;;;12.80;100.00
20003;BME280;10162;41.600;23.806;2023-02-28T12:33:39;95594.13;;;13.04;100.00
20003;BME280;10162;41.600;23.806;2023-02-28T12:36:29;95582.78;;;12.84;100.00
20003;BME280;10162;41.600;23.806;2023-02-28T12:39:48;95582.16;;;12.75;100.00
20003;BME280;10162;41.600;23.806;2023-02-28T12:43:49;95584.69;;;12.56;100.00
20003;BME280;10162;41.600;23.806;2023-02-28T12:47:14;95586.88;;;12.46;100.00
20003;BME280;10162;41.600;23.806;2023-02-28T12:50:53;95593.75;;;12.47;100.00
20003;BME280;10162;41.600;23.806;2023-02-28T13:19:20;95557.22;;;11.76;100.00
20003;BME280;10162;41.600;23.806;2023-02-28T13:35:38;95584.22;;;11.28;100.00
20003;BME280;10162;41.600;23.806;2023-02-28T13:45:24;95577.47;;;11.68;100.00
20003;BME280;10162;41.600;23.806;2023-02-28T13:48:01;95564.00;;;11.71;100.00
20003;BME280;10162;41.600;23.806;2023-02-28T13:50:38;95554.16;;;11.73;100.00
20003;BME280;10162;41.600;23.806;2023-02-28T13:56:31;95584.13;;;11.91;100.00
20003;BME280;10162;41.600;23.806;2023-02-28T13:59:27;95580.41;;;11.79;100.00
20003;BME280;10162;41.600;23.806;2023-02-28T14:05:18;95576.06;;;11.65;100.00
20003;BME280;10162;41.600;23.806;2023-02-28T14:07:52;95553.38;;;11.51;100.00
20003;BME280;10162;41.600;23.806;2023-02-28T14:10:25;95568.53;;;11.34;100.00
20003;BME280;10162;41.600;23.806;2023-02-28T14:37:45;95593.69;;;10.71;100.00
20003;BME280;10162;41.600;23.806;2023-02-28T14:44:33;95605.94;;;10.71;100.00
20003;BME280;10162;41.600;23.806;2023-02-28T14:47:02;95605.69;;;10.66;100.00
20003;BME280;10162;41.600;23.806;2023-02-28T15:01:11;95623.19;;;10.51;100.00
20003;BME280;10162;41.600;23.806;2023-02-28T15:03:39;95611.84;;;10.58;100.00
20003;BME280;10162;41.600;23.806;2023-02-28T15:06:21;95601.84;;;10.47;100.00
20003;BME280;10162;41.600;23.806;2023-02-28T15:09:18;95595.63;;;10.33;100.00
20003;BME280;10162;41.600;23.806;2023-02-28T15:12:01;95608.50;;;10.20;100.00
20003;BME280;10162;41.600;23.806;2023-02-28T15:14:28;95562.19;;;10.00;100.00
20003;BME280;10162;41.600;23.806;2023-02-28T15:17:02;95583.94;;;10.29;100.00
20003;BME280;10162;41.600;23.806;2023-02-28T15:19:47;95588.78;;;10.32;100.00
20003;BME280;10162;41.600;23.806;2023-02-28T15:26:27;95583.16;;;10.65;100.00
20003;BME280;10162;41.600;23.806;2023-02-28T15:29:17;95610.50;;;10.84;100.00
20003;BME280;10162;41.600;23.806;2023-02-28T15:33:01;95618.56;;;10.82;100.00
20003;BME280;10162;41.600;23.806;2023-02-28T15:36:20;95627.41;;;10.81;100.00
20003;BME280;10162;41.600;23.806;2023-02-28T15:38:58;95597.16;;;10.57;100.00
20003;BME280;10162;41.600;23.806;2023-02-28T15:41:54;95632.16;;;10.77;100.00
20003;BME280;10162;41.600;23.806;2023-02-28T15:45:25;95640.50;;;10.52;100.00
20003;BME280;10162;41.600;23.806;2023-02-28T15:48:29;95625.47;;;10.24;100.00
20003;BME280;10162;41.600;23.806;2023-02-28T15:51:16;95611.44;;;10.03;100.00
20003;BME280;10162;41.600;23.806;2023-02-28T15:54:28;95623.09;;;10.15;100.00
20003;BME280;10162;41.600;23.806;2023-02-28T15:56:55;95619.34;;;9.80;100.00
20003;BME280;10162;41.600;23.806;2023-02-28T15:59:28;95616.47;;;9.75;100.00
20003;BME280;10162;41.600;23.806;2023-02-28T16:05:28;95636.53;;;9.37;100.00
20003;BME280;10162;41.600;23.806;2023-02-28T16:08:14;95614.03;;;9.36;100.00
20003;BME280;10162;41.600;23.806;2023-02-28T16:10:41;95632.78;;;9.39;100.00
20003;BME280;10162;41.600;23.806;2023-02-28T16:17:22;95612.75;;;9.32;100.00
20003;BME280;10162;41.600;23.806;2023-02-28T16:20:00;95613.88;;;9.15;100.00
20003;BME280;10162;41.600;23.806;2023-02-28T16:22:36;95614.50;;;9.17;100.00
20003;BME280;10162;41.600;23.806;2023-02-28T16:25:03;95608.00;;;9.12;100.00
20003;BME280;10162;41.600;23.806;2023-02-28T16:27:36;95613.03;;;9.14;100.00
20003;BME280;10162;41.600;23.806;2023-02-28T16:30:25;95633.63;;;9.32;100.00
20003;BME280;10162;41.600;23.806;2023-02-28T16:33:23;95610.97;;;9.09;100.00
20003;BME280;10162;41.600;23.806;2023-02-28T16:37:15;95635.88;;;9.12;100.00
20003;BME280;10162;41.600;23.806;2023-02-28T16:44:33;95601.25;;;8.95;100.00
20003;BME280;10162;41.600;23.806;2023-02-28T16:50:19;95595.66;;;9.06;100.00
20003;BME280;10162;41.600;23.806;2023-02-28T16:53:13;95648.22;;;9.41;100.00
20003;BME280;10162;41.600;23.806;2023-02-28T16:55:46;95623.66;;;9.12;100.00
20003;BME280;10162;41.600;23.806;2023-02-28T16:58:16;95600.25;;;9.04;100.00
20003;BME280;10162;41.600;23.806;2023-02-28T17:00:44;95631.84;;;9.09;100.00
20003;BME280;10162;41.600;23.806;2023-02-28T17:03:30;95649.16;;;9.02;100.00
20003;BME280;10162;41.600;23.806;2023-02-28T17:06:26;95609.69;;;8.44;100.00
20003;BME280;10162;41.600;23.806;2023-02-28T17:09:18;95591.50;;;8.36;100.00
20003;BME280;10162;41.600;23.806;2023-02-28T17:12:06;95655.59;;;8.84;100.00
20003;BME280;10162;41.600;23.806;2023-02-28T17:15:54;95635.53;;;8.92;100.00
20003;BME280;10162;41.600;23.806;2023-02-28T17:18:21;95640.41;;;9.18;100.00
20003;BME280;10162;41.600;23.806;2023-02-28T17:20:47;95635.94;;;9.04;100.00
20003;BME280;10162;41.600;23.806;2023-02-28T17:23:14;95642.88;;;9.11;100.00
20003;BME280;10162;41.600;23.806;2023-02-28T17:25:41;95650.94;;;9.02;100.00
20003;BME280;10162;41.600;23.806;2023-02-28T17:28:24;95643.81;;;8.96;100.00
20003;BME280;10162;41.600;23.806;2023-02-28T17:30:50;95652.34;;;9.12;100.00
20003;BME280;10162;41.600;23.806;2023-02-28T17:33:42;95659.94;;;8.99;100.00
20003;BME280;10162;41.600;23.806;2023-02-28T17:36:18;95627.13;;;8.82;100.00
20003;BME280;10162;41.600;23.806;2023-02-28T17:38:49;95633.00;;;8.76;100.00
20003;BME280;10162;41.600;23.806;2023-02-28T17:41:15;95648.81;;;9.05;100.00
20003;BME280;10162;41.600;23.806;2023-02-28T17:43:41;95652.16;;;8.91;100.00
20003;BME280;10162;41.600;23.806;2023-02-28T17:46:16;95647.44;;;8.87;100.00
20003;BME280;10162;41.600;23.806;2023-02-28T17:48:44;95661.53;;;9.00;100.00
20003;BME280;10162;41.600;23.806;2023-02-28T17:51:12;95638.41;;;8.66;100.00
20003;BME280;10162;41.600;23.806;2023-02-28T17:53:39;95640.81;;;8.76;100.00
20003;BME280;10162;41.600;23.806;2023-02-28T17:56:05;95645.69;;;8.79;100.00
20003;BME280;10162;41.600;23.806;2023-02-28T17:58:31;95651.97;;;8.93;100.00
20003;BME280;10162;41.600;23.806;2023-02-28T18:00:57;95675.31;;;8.86;100.00
20003;BME280;10162;41.600;23.806;2023-02-28T18:11:03;95680.63;;;8.62;100.00
20003;BME280;10162;41.600;23.806;2023-02-28T18:13:37;95681.66;;;8.53;100.00
20003;BME280;10162;41.600;23.806;2023-02-28T18:16:03;95676.97;;;8.40;100.00
20003;BME280;10162;41.600;23.806;2023-02-28T18:29:16;95680.91;;;8.75;100.00
20003;BME280;10162;41.600;23.806;2023-02-28T18:31:43;95660.81;;;8.53;100.00
20003;BME280;10162;41.600;23.806;2023-02-28T18:34:09;95658.28;;;8.67;100.00
20003;BME280;10162;41.600;23.806;2023-02-28T18:36:35;95684.03;;;8.62;100.00
20003;BME280;10162;41.600;23.806;2023-02-28T18:39:04;95656.50;;;8.68;100.00
20003;BME280;10162;41.600;23.806;2023-02-28T18:41:34;95666.28;;;8.66;100.00
20003;BME280;10162;41.600;23.806;2023-02-28T18:44:00;95671.47;;;8.66;100.00
20003;BME280;10162;41.600;23.806;2023-02-28T18:46:31;95669.81;;;8.73;100.00
20003;BME280;10162;41.600;23.806;2023-02-28T18:48:57;95666.59;;;8.71;100.00
20003;BME280;10162;41.600;23.806;2023-02-28T18:54:34;95682.09;;;8.64;100.00
20003;BME280;10162;41.600;23.806;2023-02-28T18:57:00;95689.03;;;8.80;100.00
20003;BME280;10162;41.600;23.806;2023-02-28T18:59:26;95710.66;;;8.89;100.00
20003;BME280;10162;41.600;23.806;2023-02-28T19:02:14;95698.88;;;8.62;100.00
20003;BME280;10162;41.600;23.806;2023-02-28T19:04:45;95681.91;;;8.66;100.00
20003;BME280;10162;41.600;23.806;2023-02-28T19:07:11;95682.03;;;8.73;100.00
20003;BME280;10162;41.600;23.806;2023-02-28T19:09:39;95694.78;;;8.67;100.00
20003;BME280;10162;41.600;23.806;2023-02-28T19:12:36;95700.78;;;8.76;100.00
20003;BME280;10162;41.600;23.806;2023-02-28T19:15:07;95695.13;;;8.64;100.00
20003;BME280;10162;41.600;23.806;2023-02-28T19:17:37;95669.44;;;8.45;100.00
20003;BME280;10162;41.600;23.806;2023-02-28T19:20:06;95655.28;;;8.48;100.00
20003;BME280;10162;41.600;23.806;2023-02-28T19:26:30;95723.88;;;8.87;100.00
20003;BME280;10162;41.600;23.806;2023-02-28T19:28:56;95698.81;;;8.78;100.00
20003;BME280;10162;41.600;23.806;2023-02-28T19:31:25;95709.06;;;8.80;100.00
20003;BME280;10162;41.600;23.806;2023-02-28T19:37:13;95673.22;;;8.43;100.00
20003;BME280;10162;41.600;23.806;2023-02-28T19:39:42;95713.69;;;8.69;100.00
20003;BME280;10162;41.600;23.806;2023-02-28T19:45:27;95691.72;;;8.64;100.00
20003;BME280;10162;41.600;23.806;2023-02-28T19:47:54;95718.22;;;8.76;100.00
20003;BME280;10162;41.600;23.806;2023-02-28T19:50:21;95697.53;;;8.66;100.00
20003;BME280;10162;41.600;23.806;2023-02-28T19:53:14;95687.31;;;8.56;100.00
20003;BME280;10162;41.600;23.806;2023-02-28T19:55:45;95746.03;;;8.83;100.00
20003;BME280;10162;41.600;23.806;2023-02-28T19:58:15;95715.03;;;8.57;100.00
20003;BME280;10162;41.600;23.806;2023-02-28T20:00:42;95731.53;;;8.42;100.00
20003;BME280;10162;41.600;23.806;2023-02-28T20:06:10;95727.28;;;8.41;100.00
20003;BME280;10162;41.600;23.806;2023-02-28T20:08:42;95740.56;;;8.62;100.00
20003;BME280;10162;41.600;23.806;2023-02-28T20:11:11;95729.53;;;8.60;100.00
20003;BME280;10162;41.600;23.806;2023-02-28T20:13:38;95737.97;;;8.70;100.00
20003;BME280;10162;41.600;23.806;2023-02-28T20:16:05;95744.97;;;8.61;100.00
20003;BME280;10162;41.600;23.806;2023-02-28T20:18:35;95738.63;;;8.64;100.00
20003;BME280;10162;41.600;23.806;2023-02-28T20:21:02;95730.50;;;8.51;100.00
20003;BME280;10162;41.600;23.806;2023-02-28T20:27:22;95723.84;;;8.40;100.00
20003;BME280;10162;41.600;23.806;2023-02-28T20:29:49;95751.53;;;8.41;100.00
20003;BME280;10162;41.600;23.806;2023-02-28T20:32:15;95755.25;;;8.55;100.00
20003;BME280;10162;41.600;23.806;2023-02-28T20:34:46;95731.53;;;8.34;100.00
20003;BME280;10162;41.600;23.806;2023-02-28T20:37:19;95722.38;;;8.29;100.00
20003;BME280;10162;41.600;23.806;2023-02-28T20:39:45;95751.66;;;8.56;100.00
20003;BME280;10162;41.600;23.806;2023-02-28T20:42:48;95757.56;;;8.42;100.00
20003;BME280;10162;41.600;23.806;2023-02-28T20:45:28;95769.28;;;8.29;100.00
20003;BME280;10162;41.600;23.806;2023-02-28T20:50:55;95757.72;;;8.40;100.00
20003;BME280;10162;41.600;23.806;2023-02-28T20:53:30;95748.44;;;8.21;100.00
20003;BME280;10162;41.600;23.806;2023-02-28T20:56:00;95755.44;;;8.29;100.00
20003;BME280;10162;41.600;23.806;2023-02-28T20:58:29;95752.19;;;8.43;100.00
20003;BME280;10162;41.600;23.806;2023-02-28T21:03:49;95746.50;;;8.15;100.00
20003;BME280;10162;41.600;23.806;2023-02-28T21:06:17;95723.06;;;7.59;100.00
20003;BME280;10162;41.600;23.806;2023-02-28T21:08:44;95697.38;;;7.64;100.00
20003;BME280;10162;41.600;23.806;2023-02-28T21:29:20;95691.38;;;7.79;100.00
20003;BME280;10162;41.600;23.806;2023-02-28T21:33:04;95655.13;;;7.45;100.00
20003;BME280;10162;41.600;23.806;2023-02-28T21:35:46;95714.88;;;8.26;100.00
20003;BME280;10162;41.600;23.806;2023-02-28T21:38:32;95697.00;;;8.23;100.00
20003;BME280;10162;41.600;23.806;2023-02-28T21:41:07;95663.19;;;8.07;100.00